createdAt,value
2019-02-07T00:01:25.486Z,100859.61
2019-02-07T00:03:53.468Z,100854.00
2019-02-07T00:06:21.940Z,100849.92
2019-02-07T00:08:49.965Z,100850.31
2019-02-07T00:11:17.986Z,100846.55
2019-02-07T00:13:45.935Z,100842.16
2019-02-07T00:16:14.010Z,100832.22
2019-02-07T00:18:42.264Z,100832.91
2019-02-07T00:21:10.276Z,100827.83
2019-02-07T00:23:38.154Z,100821.85
2019-02-07T00:26:06.169Z,100819.25
2019-02-07T00:28:34.154Z,100818.22
2019-02-07T00:31:02.284Z,100814.32
2019-02-07T00:33:30.236Z,100813.49
2019-02-07T00:35:58.382Z,100813.88
2019-02-07T00:38:26.370Z,100809.59
2019-02-07T00:40:54.164Z,100806.87
2019-02-07T00:43:22.083Z,100815.72
2019-02-07T00:45:50.075Z,100811.73
2019-02-07T00:48:18.087Z,100810.64
2019-02-07T00:50:47.085Z,100813.04
2019-02-07T00:53:14.943Z,100809.13
2019-02-07T00:55:43.523Z,100795.86
2019-02-07T00:58:11.506Z,100802.48
2019-02-07T01:00:39.528Z,100794.98
2019-02-07T01:03:07.509Z,100794.94
2019-02-07T01:05:35.710Z,100791.97
2019-02-07T01:08:04.525Z,100793.53
2019-02-07T01:10:32.626Z,100791.28
2019-02-07T01:13:00.616Z,100789.36
2019-02-07T01:15:28.918Z,100784.30
2019-02-07T01:17:56.830Z,100789.22
2019-02-07T01:20:24.975Z,100776.11
2019-02-07T01:22:53.649Z,100782.21
2019-02-07T01:25:21.640Z,100780.50
2019-02-07T01:27:49.827Z,100784.40
2019-02-07T01:30:19.951Z,100775.16
2019-02-07T01:32:48.128Z,100779.45
2019-02-07T01:35:16.154Z,100777.13
2019-02-07T01:37:45.536Z,100776.61
2019-02-07T01:40:15.682Z,100773.93
2019-02-07T01:42:43.690Z,100775.04
2019-02-07T01:45:14.185Z,100767.41
2019-02-07T01:47:42.220Z,100767.12
2019-02-07T01:50:12.008Z,100769.34
2019-02-07T01:52:40.008Z,100758.70
2019-02-07T01:55:08.350Z,100745.19
2019-02-07T01:57:36.342Z,100751.95
2019-02-07T02:00:07.235Z,100752.73
2019-02-07T02:02:35.128Z,100746.63
2019-02-07T02:05:03.651Z,100738.30
2019-02-07T02:07:31.734Z,100730.98
2019-02-07T02:10:00.323Z,100729.73
2019-02-07T02:12:28.459Z,100716.81
2019-02-07T02:14:56.333Z,100714.27
2019-02-07T02:17:24.309Z,100711.35
2019-02-07T02:19:52.327Z,100713.61
2019-02-07T02:22:20.198Z,100711.92
2019-02-07T02:24:48.212Z,100701.73
2019-02-07T02:27:16.585Z,100701.78
2019-02-07T02:29:44.760Z,100696.20
2019-02-07T02:32:13.644Z,100696.59
2019-02-07T02:34:41.620Z,100688.53
2019-02-07T02:37:09.593Z,100689.18
2019-02-07T02:39:37.457Z,100679.16
2019-02-07T02:42:05.505Z,100681.10
2019-02-07T02:44:33.900Z,100670.63
2019-02-07T02:47:01.870Z,100672.34
2019-02-07T02:49:29.933Z,100671.32
2019-02-07T02:51:57.896Z,100668.08
2019-02-07T02:54:47.873Z,100665.78
2019-02-07T02:57:15.873Z,100657.06
2019-02-07T02:59:43.746Z,100668.75
2019-02-07T03:02:31.457Z,100659.47
2019-02-07T03:05:28.006Z,100653.63
2019-02-07T03:08:14.475Z,100647.78
2019-02-07T03:11:17.077Z,100642.23
2019-02-07T03:14:02.840Z,100630.60
2019-02-07T03:16:50.325Z,100641.84
2019-02-07T03:19:36.643Z,100625.45
2019-02-07T03:22:23.001Z,100625.50
2019-02-07T03:25:10.944Z,100615.28
2019-02-07T03:28:13.343Z,100615.01
2019-02-07T03:31:09.506Z,100615.28
2019-02-07T03:33:59.600Z,100611.00
2019-02-07T03:36:50.567Z,100596.23
2019-02-07T03:39:43.583Z,100599.37
2019-02-07T03:42:37.314Z,100596.38
2019-02-07T03:45:31.129Z,100595.69
2019-02-07T03:48:24.280Z,100597.33
2019-02-07T03:51:17.658Z,100593.76
2019-02-07T03:54:03.838Z,100592.58
2019-02-07T03:56:51.328Z,100589.83
2019-02-07T03:59:51.185Z,100589.23
2019-02-07T04:02:41.671Z,100594.34
2019-02-07T04:05:34.898Z,100590.95
2019-02-07T04:08:26.784Z,100600.17
2019-02-07T04:11:13.207Z,100597.77
2019-02-07T04:14:00.863Z,100595.39
2019-02-07T04:16:44.732Z,100599.52
2019-02-07T04:19:38.313Z,100590.63
2019-02-07T04:22:23.831Z,100589.72
2019-02-07T04:25:23.085Z,100583.89
2019-02-07T04:28:26.216Z,100578.19
2019-02-07T04:31:25.749Z,100575.11
2019-02-07T04:34:11.416Z,100563.36
2019-02-07T04:36:57.463Z,100569.33
2019-02-07T04:39:43.545Z,100556.30
2019-02-07T04:42:31.108Z,100548.95
2019-02-07T04:45:18.791Z,100551.12
2019-02-07T04:48:21.114Z,100554.62
2019-02-07T04:51:00.560Z,100550.33
2019-02-07T04:53:48.568Z,100549.16
2019-02-07T04:56:26.900Z,100552.70
2019-02-07T04:59:24.072Z,100546.73
2019-02-07T05:02:09.952Z,100542.84
2019-02-07T05:05:06.146Z,100546.90
2019-02-07T05:08:05.607Z,100550.00
2019-02-07T05:10:51.557Z,100543.13
2019-02-07T05:13:51.818Z,100534.68
2019-02-07T05:16:39.637Z,100537.05
2019-02-07T05:19:20.113Z,100535.94
2019-02-07T05:22:16.823Z,100530.88
2019-02-07T05:25:06.334Z,100530.88
2019-02-07T05:27:45.191Z,100525.30
2019-02-07T05:30:48.451Z,100518.43
2019-02-07T05:33:34.488Z,100522.31
2019-02-07T05:36:36.735Z,100525.81
2019-02-07T05:39:15.856Z,100518.20
2019-02-07T05:41:53.282Z,100510.85
2019-02-07T05:44:46.516Z,100513.94
2019-02-07T05:47:48.633Z,100510.38
2019-02-07T05:50:34.322Z,100505.45
2019-02-07T05:53:24.363Z,100501.28
2019-02-07T05:56:20.715Z,100496.70
2019-02-07T05:58:59.417Z,100492.39
2019-02-07T06:01:40.501Z,100492.75
2019-02-07T06:04:24.076Z,100497.59
2019-02-07T06:07:06.868Z,100491.19
2019-02-07T06:09:54.271Z,100493.22
2019-02-07T06:12:57.448Z,100489.17
2019-02-07T06:15:45.031Z,100484.94
2019-02-07T06:18:35.152Z,100481.52
2019-02-07T06:21:10.844Z,100494.24
2019-02-07T06:23:45.238Z,100489.89
2019-02-07T06:26:35.423Z,100489.06
2019-02-07T06:29:21.445Z,100478.98
2019-02-07T06:32:00.173Z,100490.01
2019-02-07T06:34:46.126Z,100484.24
2019-02-07T06:37:30.002Z,100483.18
2019-02-07T06:40:16.291Z,100484.75
2019-02-07T06:43:09.439Z,100484.91
2019-02-07T06:45:55.865Z,100481.41
2019-02-07T06:48:45.985Z,100482.44
2019-02-07T06:51:39.202Z,100476.50
2019-02-07T06:54:23.410Z,100479.23
2019-02-07T06:57:16.749Z,100472.13
2019-02-07T07:00:03.449Z,100469.09
2019-02-07T07:02:49.462Z,100469.24
2019-02-07T07:05:32.146Z,100472.02
2019-02-07T07:08:11.542Z,100467.90
2019-02-07T07:10:54.984Z,100471.80
2019-02-07T07:13:51.404Z,100463.63
2019-02-07T07:16:48.148Z,100459.83
2019-02-07T07:19:38.469Z,100450.28
2019-02-07T07:22:24.844Z,100449.66
2019-02-07T07:25:04.092Z,100450.09
2019-02-07T07:27:43.020Z,100454.33
2019-02-07T07:30:37.964Z,100442.45
2019-02-07T07:33:20.201Z,100443.17
2019-02-07T07:36:06.501Z,100434.34
2019-02-07T07:38:59.727Z,100433.95
2019-02-07T07:41:43.771Z,100423.95
2019-02-07T07:44:29.744Z,100417.63
2019-02-07T07:47:35.690Z,100421.72
2019-02-07T07:50:28.035Z,100421.97
2019-02-07T07:53:18.267Z,100417.02
2019-02-07T07:56:14.376Z,100419.42
2019-02-07T07:58:56.154Z,100426.93
2019-02-07T08:01:42.325Z,100426.02
2019-02-07T08:04:16.172Z,100428.14
2019-02-07T08:07:02.157Z,100431.28
2019-02-07T08:09:47.212Z,100422.42
2019-02-07T08:12:37.137Z,100421.31
2019-02-07T08:15:22.433Z,100421.17
2019-02-07T08:18:12.981Z,100414.70
2019-02-07T08:20:59.217Z,100417.55
2019-02-07T08:23:47.710Z,100414.20
2019-02-07T08:26:38.158Z,100407.32
2019-02-07T08:29:18.484Z,100400.83
2019-02-07T08:32:04.818Z,100408.19
2019-02-07T08:34:46.401Z,100419.72
2019-02-07T08:37:33.997Z,100413.81
2019-02-07T08:40:21.438Z,100421.70
2019-02-07T08:43:11.836Z,100423.88
2019-02-07T08:45:59.411Z,100415.91
2019-02-07T08:48:40.150Z,100416.63
2019-02-07T08:51:30.526Z,100415.63
2019-02-07T08:54:17.647Z,100407.31
2019-02-07T08:57:20.098Z,100406.71
2019-02-07T09:00:08.905Z,100407.89
2019-02-07T09:02:51.759Z,100396.41
2019-02-07T09:05:51.039Z,100398.12
2019-02-07T09:08:36.455Z,100389.23
2019-02-07T09:11:22.410Z,100385.35
2019-02-07T09:14:15.657Z,100389.30
2019-02-07T09:17:00.003Z,100388.23
2019-02-07T09:19:47.312Z,100379.70
2019-02-07T09:22:34.791Z,100379.54
2019-02-07T09:25:34.419Z,100381.23
2019-02-07T09:28:15.055Z,100373.50
2019-02-07T09:31:02.695Z,100378.28
2019-02-07T09:33:53.177Z,100372.58
2019-02-07T09:36:43.410Z,100371.66
2019-02-07T09:39:48.672Z,100367.86
2019-02-07T09:42:34.901Z,100363.09
2019-02-07T09:45:37.034Z,100361.52
2019-02-07T09:48:23.047Z,100356.20
2019-02-07T09:51:16.136Z,100357.61
2019-02-07T09:54:06.393Z,100354.44
2019-02-07T09:56:56.579Z,100349.14
2019-02-07T09:59:39.883Z,100349.21
2019-02-07T10:02:39.697Z,100344.83
2019-02-07T10:05:28.728Z,100339.30
2019-02-07T10:08:22.237Z,100334.97
2019-02-07T10:11:15.594Z,100333.94
2019-02-07T10:14:01.621Z,100332.11
2019-02-07T10:16:53.854Z,100320.23
2019-02-07T10:19:48.073Z,100317.27
2019-02-07T10:22:36.269Z,100306.33
2019-02-07T10:25:18.091Z,100298.92
2019-02-07T10:28:11.318Z,100294.95
2019-02-07T10:31:16.870Z,100288.23
2019-02-07T10:34:09.127Z,100286.25
2019-02-07T10:37:02.410Z,100278.14
2019-02-07T10:40:04.891Z,100267.53
2019-02-07T10:42:51.116Z,100261.50
2019-02-07T10:45:57.131Z,100259.22
2019-02-07T10:48:44.729Z,100253.86
2019-02-07T10:51:30.906Z,100249.11
2019-02-07T10:54:21.062Z,100247.95
2019-02-07T10:57:05.055Z,100235.16
2019-02-07T10:59:50.924Z,100223.14
2019-02-07T11:02:47.845Z,100222.72
2019-02-07T11:05:33.878Z,100221.38
2019-02-07T11:08:30.505Z,100213.09
2019-02-07T11:11:16.875Z,100209.59
2019-02-07T11:14:12.227Z,100197.02
2019-02-07T11:16:59.682Z,100200.19
2019-02-07T11:19:52.951Z,100199.52
2019-02-07T11:22:40.251Z,100190.17
2019-02-07T11:25:42.412Z,100176.19
2019-02-07T11:28:29.847Z,100171.66
2019-02-07T11:31:04.244Z,100173.56
2019-02-07T11:33:51.896Z,100168.22
2019-02-07T11:36:53.800Z,100161.95
2019-02-07T11:39:43.564Z,100160.28
2019-02-07T11:42:29.802Z,100162.97
2019-02-07T11:45:08.326Z,100155.00
2019-02-07T11:47:55.817Z,100145.06
2019-02-07T11:50:43.155Z,100130.17
2019-02-07T11:53:26.028Z,100130.43
2019-02-07T11:56:10.324Z,100129.84
2019-02-07T11:58:56.456Z,100128.54
2019-02-07T12:01:43.818Z,100122.70
2019-02-07T12:04:24.851Z,100125.45
2019-02-07T12:07:17.748Z,100118.34
2019-02-07T12:09:55.133Z,100122.27
2019-02-07T12:12:41.231Z,100112.35
2019-02-07T12:15:33.806Z,100095.05
2019-02-07T12:18:24.360Z,100088.23
2019-02-07T12:21:03.335Z,100082.16
2019-02-07T12:23:59.729Z,100074.27
2019-02-07T12:26:39.073Z,100080.57
2019-02-07T12:29:32.662Z,100075.20
2019-02-07T12:32:32.224Z,100076.52
2019-02-07T12:35:25.840Z,100072.19
2019-02-07T12:38:13.327Z,100063.81
2019-02-07T12:41:09.616Z,100076.81
2019-02-07T12:43:55.804Z,100073.27
2019-02-07T12:46:43.045Z,100070.06
2019-02-07T12:49:46.167Z,100061.95
2019-02-07T12:52:26.073Z,100061.35
2019-02-07T12:55:12.326Z,100055.98
2019-02-07T12:57:58.855Z,100048.00
2019-02-07T13:00:49.054Z,100053.84
2019-02-07T13:03:36.369Z,100057.67
2019-02-07T13:06:25.338Z,100055.41
2019-02-07T13:09:25.197Z,100059.83
2019-02-07T13:12:21.592Z,100058.63
2019-02-07T13:15:24.513Z,100061.62
2019-02-07T13:18:11.024Z,100053.60
2019-02-07T13:21:04.480Z,100042.74
2019-02-07T13:23:59.296Z,100039.23
2019-02-07T13:26:44.329Z,100037.78
2019-02-07T13:29:41.263Z,100032.94
2019-02-07T13:32:27.373Z,100022.02
2019-02-07T13:35:23.956Z,100017.12
2019-02-07T13:38:13.904Z,100015.89
2019-02-07T13:41:09.498Z,100027.33
2019-02-07T13:43:51.587Z,100029.31
2019-02-07T13:46:49.241Z,100024.42
2019-02-07T13:49:35.120Z,100018.07
2019-02-07T13:52:28.370Z,100006.13
2019-02-07T13:55:16.927Z,100004.13
2019-02-07T13:58:19.373Z,100010.22
2019-02-07T14:01:06.805Z,100003.52
2019-02-07T14:04:09.935Z,99998.78
2019-02-07T14:07:01.991Z,100008.69
2019-02-07T14:09:57.313Z,99999.30
2019-02-07T14:12:53.818Z,100008.59
2019-02-07T14:15:44.127Z,99993.77
2019-02-07T14:18:32.739Z,100025.40
2019-02-07T14:21:32.292Z,99991.38
2019-02-07T14:24:25.550Z,100002.15
2019-02-07T14:27:25.047Z,99996.23
2019-02-07T14:30:27.786Z,100007.34
2019-02-07T14:33:13.297Z,100019.09
2019-02-07T14:36:00.693Z,100008.38
2019-02-07T14:38:51.065Z,100016.50
2019-02-07T14:41:31.797Z,100011.14
2019-02-07T14:44:22.085Z,100013.17
2019-02-07T14:46:51.024Z,100014.60
2019-02-07T14:49:19.694Z,100015.31
2019-02-07T14:51:47.981Z,100036.31
2019-02-07T14:54:17.498Z,100019.60
2019-02-07T14:56:45.496Z,100024.15
2019-02-07T14:59:13.886Z,100022.45
2019-02-07T15:01:41.859Z,100012.19
2019-02-07T15:04:11.852Z,100028.65
2019-02-07T15:06:40.568Z,100031.72
2019-02-07T15:09:13.908Z,100020.59
2019-02-07T15:11:42.454Z,100033.95
2019-02-07T15:14:11.373Z,100022.00
2019-02-07T15:16:40.096Z,100025.80
2019-02-07T15:19:08.252Z,100012.83
2019-02-07T15:21:36.591Z,100019.44
2019-02-07T15:24:08.287Z,100016.46
2019-02-07T15:26:35.470Z,100018.72
2019-02-07T15:29:04.283Z,100015.61
2019-02-07T15:31:32.275Z,100015.11
2019-02-07T15:34:00.421Z,100006.92
2019-02-07T15:36:28.429Z,100004.72
2019-02-07T15:38:56.371Z,100007.61
2019-02-07T15:41:24.662Z,100004.95
2019-02-07T15:43:52.586Z,100011.86
2019-02-07T15:46:20.665Z,100013.20
2019-02-07T15:48:48.671Z,100009.73
2019-02-07T15:51:16.761Z,100009.32
2019-02-07T15:53:44.543Z,100003.58
2019-02-07T15:56:12.892Z,100007.50
2019-02-07T15:59:01.909Z,100008.90
2019-02-07T16:01:50.541Z,100005.02
2019-02-07T16:04:21.906Z,100011.64
2019-02-07T16:06:49.859Z,100000.30
2019-02-07T16:09:18.148Z,99999.13
2019-02-07T16:11:46.212Z,99998.36
2019-02-07T16:14:14.235Z,99996.81
2019-02-07T16:16:42.225Z,99999.66
2019-02-07T16:19:10.240Z,99998.44
2019-02-07T16:21:38.420Z,99999.29
2019-02-07T16:24:06.898Z,100004.38
2019-02-07T16:26:34.754Z,99994.00
2019-02-07T16:29:03.565Z,99998.48
2019-02-07T16:31:33.313Z,100001.25
2019-02-07T16:34:01.180Z,99996.33
2019-02-07T16:36:30.235Z,99994.27
2019-02-07T16:38:58.521Z,99997.62
2019-02-07T16:41:26.577Z,100000.04
2019-02-07T16:43:54.537Z,99997.41
2019-02-07T16:46:22.585Z,99995.80
2019-02-07T16:48:53.503Z,100006.05
2019-02-07T16:51:21.510Z,100000.84
2019-02-07T16:53:53.341Z,99996.19
2019-02-07T16:56:21.535Z,99990.06
2019-02-07T16:58:49.610Z,99989.57
2019-02-07T17:01:17.609Z,99993.20
2019-02-07T17:03:45.513Z,99995.17
2019-02-07T17:06:13.636Z,99997.26
2019-02-07T17:08:41.937Z,100009.62
2019-02-07T17:11:10.595Z,100006.66
2019-02-07T17:13:38.557Z,100003.73
2019-02-07T17:16:07.159Z,100000.98
2019-02-07T17:18:35.308Z,100004.23
2019-02-07T17:21:11.547Z,99998.12
2019-02-07T17:23:34.261Z,99998.12
2019-02-07T17:26:02.300Z,100001.84
2019-02-07T17:28:30.383Z,99997.56
2019-02-07T17:30:58.408Z,100000.23
2019-02-07T17:33:27.192Z,99999.09
2019-02-07T17:35:55.876Z,100000.19
2019-02-07T17:38:23.758Z,100001.47
2019-02-07T17:40:52.173Z,100003.53
2019-02-07T17:43:20.704Z,99998.20
2019-02-07T17:45:48.785Z,99996.31
2019-02-07T17:48:16.725Z,100007.09
2019-02-07T17:50:44.861Z,100002.36
2019-02-07T17:53:13.092Z,100005.11
2019-02-07T17:55:41.075Z,100007.58
2019-02-07T17:58:12.710Z,100015.30
2019-02-07T18:00:47.935Z,100025.47
2019-02-07T18:03:15.905Z,100030.64
2019-02-07T18:05:44.095Z,100028.52
2019-02-07T18:08:12.300Z,100025.10
2019-02-07T18:10:40.709Z,100021.25
2019-02-07T18:13:18.123Z,100023.52
2019-02-07T18:15:46.638Z,100022.48
2019-02-07T18:18:14.978Z,100023.86
2019-02-07T18:20:43.069Z,100031.72
2019-02-07T18:23:11.097Z,100038.84
2019-02-07T18:25:38.984Z,100034.64
2019-02-07T18:28:07.343Z,100043.28
2019-02-07T18:30:35.412Z,100044.66
2019-02-07T18:33:04.076Z,100045.02
2019-02-07T18:35:32.100Z,100053.81
2019-02-07T18:37:59.949Z,100059.34
2019-02-07T18:40:28.178Z,100056.73
2019-02-07T18:42:56.024Z,100052.66
2019-02-07T18:45:24.486Z,100056.94
2019-02-07T18:47:52.590Z,100056.81
2019-02-07T18:50:31.756Z,100060.44
2019-02-07T18:52:59.771Z,100061.23
2019-02-07T18:55:27.754Z,100060.87
2019-02-07T18:57:55.789Z,100058.19
2019-02-07T19:00:25.785Z,100065.67
2019-02-07T19:02:54.058Z,100065.17
2019-02-07T19:05:22.347Z,100071.50
2019-02-07T19:07:50.628Z,100066.27
2019-02-07T19:10:20.369Z,100067.28
2019-02-07T19:12:48.563Z,100054.98
2019-02-07T19:15:26.724Z,100070.77
2019-02-07T19:17:54.675Z,100064.97
2019-02-07T19:20:22.603Z,100058.19
2019-02-07T19:22:50.561Z,100078.55
2019-02-07T19:25:18.676Z,100074.06
2019-02-07T19:27:47.252Z,100085.98
2019-02-07T19:30:23.846Z,100074.14
2019-02-07T19:32:52.172Z,100084.01
2019-02-07T19:35:20.116Z,100082.48
2019-02-07T19:37:48.379Z,100079.20
2019-02-07T19:40:16.557Z,100071.23
2019-02-07T19:42:44.453Z,100071.57
2019-02-07T19:45:13.782Z,100064.52
2019-02-07T19:47:41.874Z,100070.28
2019-02-07T19:50:12.682Z,100068.15
2019-02-07T19:52:40.951Z,100071.59
2019-02-07T19:55:11.767Z,100075.57
2019-02-07T19:57:39.738Z,100081.69
2019-02-07T20:00:10.981Z,100084.16
2019-02-07T20:02:39.662Z,100085.25
2019-02-07T20:05:08.816Z,100081.46
2019-02-07T20:07:36.792Z,100081.17
2019-02-07T20:10:07.851Z,100087.86
2019-02-07T20:12:35.688Z,100085.13
2019-02-07T20:15:07.795Z,100089.91
2019-02-07T20:17:39.170Z,100086.21
2019-02-07T20:20:08.750Z,100092.25
2019-02-07T20:22:36.604Z,100097.13
2019-02-07T20:25:05.953Z,100097.61
2019-02-07T20:27:33.884Z,100105.25
2019-02-07T20:30:02.263Z,100107.14
2019-02-07T20:32:30.802Z,100112.52
2019-02-07T20:34:58.906Z,100110.92
2019-02-07T20:37:26.777Z,100111.06
2019-02-07T20:39:54.559Z,100106.62
2019-02-07T20:42:22.442Z,100105.03
2019-02-07T20:44:50.960Z,100113.62
2019-02-07T20:47:18.709Z,100109.83
2019-02-07T20:49:46.579Z,100113.54
2019-02-07T20:52:14.557Z,100110.28
2019-02-07T20:54:43.347Z,100106.92
2019-02-07T20:57:11.375Z,100110.85
2019-02-07T20:59:39.361Z,100119.44
2019-02-07T21:02:07.374Z,100123.59
2019-02-07T21:04:36.395Z,100124.84
2019-02-07T21:07:04.564Z,100124.02
2019-02-07T21:09:32.418Z,100125.98
2019-02-07T21:12:00.496Z,100132.89
2019-02-07T21:14:28.362Z,100136.97
2019-02-07T21:16:56.362Z,100141.99
2019-02-07T21:19:24.955Z,100143.59
2019-02-07T21:21:52.856Z,100153.78
2019-02-07T21:24:21.005Z,100162.86
2019-02-07T21:26:49.209Z,100151.66
2019-02-07T21:29:17.676Z,100153.42
2019-02-07T21:31:45.526Z,100162.59
2019-02-07T21:34:13.359Z,100167.88
2019-02-07T21:36:41.177Z,100172.54
2019-02-07T21:39:10.690Z,100167.16
2019-02-07T21:41:38.560Z,100179.30
2019-02-07T21:44:06.511Z,100179.97
2019-02-07T21:46:34.542Z,100184.97
2019-02-07T21:49:02.721Z,100191.36
2019-02-07T21:51:33.943Z,100196.69
2019-02-07T21:54:01.823Z,100207.28
2019-02-07T21:56:29.682Z,100197.27
2019-02-07T21:58:57.697Z,100203.72
2019-02-07T22:01:25.569Z,100207.89
2019-02-07T22:03:53.579Z,100212.67
2019-02-07T22:06:21.556Z,100214.34
2019-02-07T22:08:49.527Z,100218.06
2019-02-07T22:11:17.388Z,100209.56
2019-02-07T22:13:45.246Z,100218.36
2019-02-07T22:16:13.159Z,100214.34
2019-02-07T22:18:41.301Z,100213.77
2019-02-07T22:21:09.227Z,100215.81
2019-02-07T22:23:37.064Z,100218.22
2019-02-07T22:26:05.066Z,100224.55
2019-02-07T22:28:32.913Z,100219.69
2019-02-07T22:31:00.805Z,100220.05
2019-02-07T22:33:28.559Z,100229.45
2019-02-07T22:35:56.683Z,100229.73
2019-02-07T22:38:24.631Z,100236.28
2019-02-07T22:40:53.374Z,100236.65
2019-02-07T22:43:21.219Z,100237.59
2019-02-07T22:45:49.097Z,100246.27
2019-02-07T22:48:16.933Z,100247.34
2019-02-07T22:50:44.900Z,100248.73
2019-02-07T22:53:15.567Z,100250.53
2019-02-07T22:55:43.984Z,100253.73
2019-02-07T22:58:12.136Z,100256.92
2019-02-07T23:01:20.414Z,100251.31
2019-02-07T23:04:03.618Z,100250.02
2019-02-07T23:06:31.670Z,100251.89
2019-02-07T23:09:00.014Z,100246.81
2019-02-07T23:11:28.277Z,100244.41
2019-02-07T23:13:56.343Z,100250.22
2019-02-07T23:16:24.625Z,100245.92
2019-02-07T23:18:52.883Z,100255.45
2019-02-07T23:21:21.674Z,100250.43
2019-02-07T23:23:49.831Z,100254.20
2019-02-07T23:26:17.906Z,100261.48
2019-02-07T23:28:46.063Z,100253.05
2019-02-07T23:31:14.315Z,100257.13
2019-02-07T23:33:42.970Z,100253.57
2019-02-07T23:36:11.056Z,100263.84
2019-02-07T23:38:39.083Z,100267.19
2019-02-07T23:41:10.358Z,100270.59
2019-02-07T23:43:45.958Z,100270.11
2019-02-07T23:46:11.173Z,100272.15
2019-02-07T23:48:40.455Z,100269.66
2019-02-07T23:51:08.594Z,100276.56
2019-02-07T23:53:36.543Z,100275.63
2019-02-07T23:56:05.747Z,100275.98
2019-02-07T23:58:33.595Z,100279.70
